Time;durP1;ratioP1;P1;durP2;ratioP2;P2;SDS_P1;SDS_P2;PMS_P1;PMS_P2;Temp;Humidity;BMP_temperature;BMP_pressure;BME280_temperature;BME280_humidity;BME280_pressure;Samples;Min_cycle;Max_cycle;Signal;HPM_P1;HPM_P2
2022/05/24 00:07:34;;;;;;;21.50;4.85;;;22.70;99.90;;;;;;4818933;29;20563;-83
2022/05/24 01:53:04;;;;;;;;;;;;;;;;;;;;;
2022/05/24 03:16:32;;;;;;;;;;;;;;;;;;;;;
2022/05/24 05:39:26;;;;;;;11.07;3.50;;;35.50;95.10;;;;;;4902025;29;20043;-86
2022/05/24 05:53:05;;;;;;;;;;;;;;;;;;;;;
2022/05/24 07:12:25;;;;;;;8.60;3.45;;;31.50;87.00;;;;;;4971254;28;20534;-80
2022/05/24 07:14:56;;;;;;;12.13;3.30;;;31.80;86.90;;;;;;4962918;28;20049;-83
2022/05/24 07:18:30;;;;;;;13.07;3.90;;;32.60;86.10;;;;;;5011002;28;20037;-83
2022/05/24 07:24:53;;;;;;;16.92;4.85;;;30.90;90.00;;;;;;4925508;29;20039;-84
2022/05/24 07:27:21;;;;;;;12.75;4.35;;;31.60;89.70;;;;;;4900531;29;20066;-83
2022/05/24 07:29:52;;;;;;;9.20;3.90;;;31.70;88.40;;;;;;4932848;28;20581;-84
2022/05/24 07:32:18;;;;;;;9.18;3.90;;;31.70;88.60;;;;;;5003108;28;20052;-84
2022/05/24 07:34:43;;;;;;;13.45;3.83;;;31.90;88.80;;;;;;5014052;28;20029;-86
2022/05/24 07:37:15;;;;;;;7.30;3.45;;;31.40;89.30;;;;;;5031748;28;20470;-84
2022/05/24 07:39:41;;;;;;;9.02;3.95;;;31.40;90.20;;;;;;5013386;28;20086;-87
2022/05/24 07:48:09;;;;;;;16.10;4.35;;;31.00;90.70;;;;;;5024215;28;20080;-90
2022/05/24 07:50:35;;;;;;;11.02;3.95;;;30.80;90.60;;;;;;5012516;28;20390;-84
2022/05/24 07:53:02;;;;;;;17.98;4.05;;;31.40;90.30;;;;;;5020696;28;20501;-85
2022/05/24 07:55:31;;;;;;;15.93;3.72;;;31.90;89.70;;;;;;5011570;28;20120;-85
2022/05/24 07:57:58;;;;;;;9.10;3.38;;;32.80;88.50;;;;;;5030436;28;20052;-85
2022/05/24 08:00:24;;;;;;;7.13;3.70;;;33.60;84.80;;;;;;5031026;28;20070;-84
2022/05/24 08:02:52;;;;;;;15.65;3.55;;;33.90;84.00;;;;;;5031059;28;20029;-85
2022/05/24 08:05:19;;;;;;;10.40;3.30;;;32.40;86.90;;;;;;5031600;28;20401;-87
2022/05/24 08:07:49;;;;;;;16.85;4.20;;;31.60;88.20;;;;;;5031929;28;20026;-82
2022/05/24 08:10:16;;;;;;;13.38;3.65;;;30.50;90.30;;;;;;5030777;28;20044;-81
2022/05/24 08:12:42;;;;;;;17.27;3.75;;;29.70;91.20;;;;;;5030580;28;20116;-83
2022/05/24 08:15:25;;;;;;;12.40;3.50;;;29.30;91.60;;;;;;5030677;28;20030;-85
2022/05/24 08:17:54;;;;;;;11.23;4.85;;;29.00;92.00;;;;;;5030842;28;20490;-82
2022/05/24 08:20:20;;;;;;;11.50;3.97;;;28.80;92.40;;;;;;5010730;28;20045;-85
2022/05/24 08:22:49;;;;;;;17.40;4.72;;;28.80;92.50;;;;;;5013481;28;20099;-86
2022/05/24 08:25:16;;;;;;;11.63;3.75;;;29.00;92.60;;;;;;5014113;28;20033;-85
2022/05/24 08:27:45;;;;;;;18.90;3.67;;;29.20;92.30;;;;;;5011639;28;20057;-85
2022/05/24 08:30:22;;;;;;;7.53;3.40;;;29.40;91.70;;;;;;5012320;28;20438;-86
2022/05/24 08:32:48;;;;;;;13.00;4.18;;;28.80;92.10;;;;;;5031169;28;20029;-86
2022/05/24 08:35:17;;;;;;;10.25;3.50;;;28.90;92.70;;;;;;5013369;28;20088;-87
2022/05/24 08:38:09;;;;;;;14.13;4.50;;;29.10;92.70;;;;;;5011918;28;20030;-83
2022/05/24 08:41:12;;;;;;;12.93;3.90;;;29.20;92.70;;;;;;5022411;28;20049;-87
2022/05/24 08:43:59;;;;;;;14.10;4.72;;;29.00;92.80;;;;;;5008567;28;20030;-86
2022/05/24 08:49:27;;;;;;;13.82;3.65;;;29.60;92.50;;;;;;5033071;28;20041;-83
2022/05/24 08:52:04;;;;;;;19.98;3.67;;;29.70;92.60;;;;;;5034222;28;20034;-84
2022/05/24 08:55:32;;;;;;;17.90;3.95;;;29.80;91.70;;;;;;5033939;28;20037;-85
2022/05/24 08:58:29;;;;;;;8.95;3.58;;;29.60;91.30;;;;;;5015301;28;20112;-86
2022/05/24 09:01:04;;;;;;;8.20;3.60;;;29.90;91.30;;;;;;5016440;28;20068;-85
2022/05/24 09:10:33;;;;;;;10.45;3.33;;;29.70;90.80;;;;;;4949638;28;20153;-83
2022/05/24 09:16:59;;;;;;;6.72;3.05;;;29.30;90.80;;;;;;5015314;28;20422;-87
2022/05/24 09:19:34;;;;;;;14.02;3.63;;;29.40;90.50;;;;;;5032856;28;20034;-85
2022/05/24 09:22:04;;;;;;;10.43;3.25;;;29.60;90.80;;;;;;5034458;28;20033;-86
2022/05/24 09:25:02;;;;;;;11.27;3.67;;;29.80;89.60;;;;;;5034912;28;20486;-85
2022/05/24 09:27:30;;;;;;;9.68;3.78;;;29.90;90.40;;;;;;5015160;28;20065;-86
2022/05/24 09:30:07;;;;;;;8.45;3.08;;;29.60;91.30;;;;;;5033215;28;20140;-83
2022/05/24 09:32:44;;;;;;;17.35;4.13;;;29.40;90.10;;;;;;5016450;28;20054;-85
2022/05/24 09:35:16;;;;;;;15.88;3.60;;;29.40;90.40;;;;;;5015625;28;20040;-87
2022/05/24 09:38:08;;;;;;;19.50;3.90;;;29.40;89.60;;;;;;5015944;28;20532;-84
2022/05/24 09:40:51;;;;;;;13.75;3.13;;;29.30;89.20;;;;;;5031957;28;20107;-84
2022/05/24 09:43:30;;;;;;;9.73;3.28;;;29.00;90.90;;;;;;5032653;28;20052;-84
2022/05/24 09:46:07;;;;;;;14.20;3.63;;;29.10;90.20;;;;;;5033895;28;20048;-84
2022/05/24 09:48:37;;;;;;;20.20;4.40;;;29.00;91.50;;;;;;5014708;28;20056;-82
2022/05/24 09:51:15;;;;;;;12.70;3.42;;;29.10;91.30;;;;;;5034654;28;20075;-82
2022/05/24 09:53:56;;;;;;;12.13;3.10;;;29.00;91.90;;;;;;5033940;28;20096;-84
2022/05/24 09:56:33;;;;;;;20.90;3.92;;;29.20;91.20;;;;;;5034264;28;20560;-84
2022/05/24 09:59:06;;;;;;;8.40;3.13;;;29.30;91.30;;;;;;5032476;28;20041;-84
2022/05/24 10:01:43;;;;;;;17.85;4.13;;;29.40;91.00;;;;;;5034531;28;20033;-83
2022/05/24 10:04:42;;;;;;;34.92;3.75;;;29.60;91.20;;;;;;5034337;28;20474;-86
2022/05/24 10:07:52;;;;;;;10.43;3.58;;;29.50;91.60;;;;;;5034606;28;20029;-83
2022/05/24 10:10:52;;;;;;;9.25;3.78;;;29.50;91.20;;;;;;4934047;29;20197;-84
2022/05/24 10:13:50;;;;;;;13.57;3.88;;;29.40;91.50;;;;;;4968793;28;20029;-85
2022/05/24 10:16:33;;;;;;;12.27;3.88;;;28.90;91.60;;;;;;5016928;28;20108;-87
2022/05/24 10:19:30;;;;;;;8.88;3.72;;;28.70;92.00;;;;;;5031345;28;20038;-83
2022/05/24 10:22:05;;;;;;;14.18;3.92;;;28.60;92.90;;;;;;5022799;28;20409;-84
2022/05/24 10:24:58;;;;;;;11.32;3.70;;;28.50;92.50;;;;;;5032180;28;20117;-83
2022/05/24 10:27:48;;;;;;;20.63;3.90;;;28.50;92.80;;;;;;5032314;28;20069;-83
2022/05/24 10:30:46;;;;;;;22.45;4.13;;;28.60;92.60;;;;;;5031587;28;20026;-83
2022/05/24 10:39:56;;;;;;;16.52;4.22;;;28.50;95.30;;;;;;5029912;28;20044;-80
2022/05/24 10:42:43;;;;;;;12.32;4.38;;;28.80;94.70;;;;;;5001952;28;20175;-76
2022/05/24 10:45:18;;;;;;;21.02;4.80;;;29.10;95.80;;;;;;5032562;28;20104;-78
2022/05/24 10:47:52;;;;;;;15.70;4.05;;;29.40;95.40;;;;;;5032580;28;20064;-81
2022/05/24 10:50:44;;;;;;;16.95;4.38;;;29.60;95.80;;;;;;5032451;28;20036;-81
2022/05/24 10:53:29;;;;;;;23.67;4.28;;;29.80;96.60;;;;;;5012535;28;20092;-79
2022/05/24 10:56:06;;;;;;;12.82;4.40;;;29.60;96.90;;;;;;5031876;28;20105;-76
2022/05/24 10:58:35;;;;;;;27.25;5.32;;;29.50;97.00;;;;;;5030600;28;20367;-77
2022/05/24 11:01:34;;;;;;;16.23;4.47;;;29.70;96.50;;;;;;5030506;28;20528;-80
2022/05/24 11:04:22;;;;;;;24.95;4.50;;;29.80;95.50;;;;;;5030536;28;20045;-80
2022/05/24 11:06:58;;;;;;;23.45;4.03;;;30.20;95.10;;;;;;5031750;28;20040;-79
2022/05/24 11:09:27;;;;;;;9.25;3.67;;;30.40;94.30;;;;;;5031346;28;20107;-77
2022/05/24 11:11:53;;;;;;;17.58;4.18;;;30.50;94.00;;;;;;5031840;28;20034;-78
2022/05/24 11:14:30;;;;;;;12.15;4.00;;;30.70;93.80;;;;;;5031647;28;20143;-79
2022/05/24 11:16:56;;;;;;;17.42;4.05;;;30.80;93.70;;;;;;5032337;28;20474;-80
2022/05/24 11:19:38;;;;;;;20.60;4.03;;;30.80;93.30;;;;;;5031868;28;20100;-79
2022/05/24 11:22:04;;;;;;;;;;;30.90;93.20;;;;;;5032687;28;20113;-80
2022/05/24 11:24:52;;;;;;;13.13;4.90;;;31.00;93.00;;;;;;5013245;28;19996;-80
2022/05/24 11:27:28;;;;;;;22.67;5.18;;;31.10;92.80;;;;;;5032214;28;20025;-79
2022/05/24 11:30:07;;;;;;;23.40;4.28;;;31.00;92.50;;;;;;5030446;28;20026;-78
2022/05/24 11:32:47;;;;;;;9.48;3.50;;;30.80;92.40;;;;;;5028068;28;20083;-84
2022/05/24 11:35:19;;;;;;;13.38;3.47;;;30.60;92.70;;;;;;5031752;28;20029;-80
2022/05/24 11:37:57;;;;;;;19.00;4.50;;;30.50;92.80;;;;;;5014708;28;20029;-79
2022/05/24 11:58:06;;;;;;;;;;;;;;;;;;;;;
2022/05/24 12:10:25;;;;;;;17.50;4.22;;;30.30;92.30;;;;;;5029401;28;20095;-76
2022/05/24 12:13:03;;;;;;;15.18;4.30;;;30.30;92.00;;;;;;5030441;28;20029;-79
2022/05/24 12:15:33;;;;;;;10.52;3.42;;;30.20;91.90;;;;;;5032119;28;20026;-75
2022/05/24 12:17:59;;;;;;;25.77;3.83;;;30.10;91.90;;;;;;5032175;28;20030;-79
2022/05/24 12:20:33;;;;;;;19.88;4.68;;;30.10;91.50;;;;;;5030881;28;20038;-80
2022/05/24 12:23:04;;;;;;;12.02;3.63;;;30.10;91.60;;;;;;5033259;28;20363;-80
2022/05/24 12:26:04;;;;;;;16.17;4.25;;;30.20;91.30;;;;;;5034472;28;20040;-79
2022/05/24 12:28:35;;;;;;;13.40;4.20;;;30.30;91.00;;;;;;5029536;28;20108;-79
2022/05/24 12:31:23;;;;;;;16.33;3.92;;;30.20;91.10;;;;;;5016939;28;20037;-81
2022/05/24 12:34:33;;;;;;;13.95;3.60;;;30.20;91.20;;;;;;5032061;28;20025;-82
2022/05/24 12:37:07;;;;;;;17.95;4.00;;;30.20;91.60;;;;;;5011122;28;20033;-84
2022/05/24 12:39:35;;;;;;;17.15;4.45;;;30.20;91.80;;;;;;5035075;28;20041;-84
2022/05/24 12:42:05;;;;;;;23.00;3.97;;;30.30;91.80;;;;;;5031785;28;20092;-83
2022/05/24 12:44:45;;;;;;;24.92;4.22;;;30.40;92.00;;;;;;5034210;28;20033;-82
2022/05/24 12:47:37;;;;;;;16.23;3.92;;;30.40;91.40;;;;;;5031253;28;20076;-84
2022/05/24 12:50:04;;;;;;;16.60;4.40;;;30.40;91.30;;;;;;5001612;28;20472;-84
2022/05/24 12:52:40;;;;;;;15.52;3.85;;;30.40;91.60;;;;;;5033103;28;20036;-82
2022/05/24 12:55:09;;;;;;;17.58;4.53;;;30.30;91.60;;;;;;5034061;28;20477;-79
2022/05/24 12:57:41;;;;;;;23.95;4.63;;;30.20;91.80;;;;;;5033643;28;20393;-81
2022/05/24 13:00:28;;;;;;;21.67;4.00;;;30.20;92.00;;;;;;5032969;28;20037;-81
2022/05/24 13:02:55;;;;;;;14.23;4.43;;;30.10;92.00;;;;;;5020378;28;20046;-83
2022/05/24 13:05:24;;;;;;;15.15;4.03;;;30.10;92.50;;;;;;5013931;28;20034;-81
2022/05/24 13:07:56;;;;;;;20.30;4.15;;;30.00;92.40;;;;;;5014037;28;20030;-82
2022/05/24 13:10:27;;;;;;;14.32;4.35;;;30.00;92.40;;;;;;5013680;28;20416;-81
2022/05/24 13:13:09;;;;;;;14.77;3.78;;;30.00;92.60;;;;;;5014337;28;20033;-81
2022/05/24 13:15:36;;;;;;;;;;;30.00;92.80;;;;;;5014797;28;20026;-82
2022/05/24 13:18:08;;;;;;;19.20;4.40;;;29.90;93.10;;;;;;5014108;28;19905;-82
2022/05/24 13:20:40;;;;;;;12.80;4.63;;;29.80;93.40;;;;;;5012211;28;20510;-81
2022/05/24 13:23:15;;;;;;;17.90;4.90;;;29.80;93.90;;;;;;5013902;28;20108;-81
2022/05/24 13:25:49;;;;;;;19.45;5.28;;;29.70;93.90;;;;;;5014170;28;20322;-79
2022/05/24 13:28:33;;;;;;;16.10;4.70;;;29.60;94.00;;;;;;5013876;28;20068;-80
2022/05/24 13:34:38;;;;;;;23.48;4.95;;;29.70;94.20;;;;;;5011795;28;20048;-81
2022/05/24 13:37:11;;;;;;;12.38;4.38;;;29.70;94.30;;;;;;4993912;28;20041;-81
2022/05/24 13:39:43;;;;;;;15.75;3.80;;;29.70;94.10;;;;;;4984811;28;20405;-79
2022/05/24 13:42:16;;;;;;;19.27;5.32;;;29.60;94.50;;;;;;5011692;28;20391;-85
2022/05/24 13:45:08;;;;;;;18.77;4.78;;;29.60;94.60;;;;;;5013840;28;20030;-84
2022/05/24 13:47:38;;;;;;;16.65;4.50;;;29.60;94.70;;;;;;5014354;28;20483;-82
2022/05/24 13:50:27;;;;;;;19.00;4.32;;;29.60;95.00;;;;;;5014506;28;20048;-88
2022/05/24 13:53:03;;;;;;;22.30;4.43;;;29.70;94.70;;;;;;5013757;28;20038;-84
2022/05/24 13:55:38;;;;;;;16.83;4.18;;;29.60;94.90;;;;;;4994578;28;20081;-82
2022/05/24 13:58:16;;;;;;;15.95;4.45;;;29.60;95.20;;;;;;4998213;28;20034;-83
2022/05/24 14:00:54;;;;;;;28.13;4.93;;;29.50;95.50;;;;;;5013636;28;20080;-84
2022/05/24 14:03:31;;;;;;;25.90;4.90;;;29.60;95.40;;;;;;5028177;28;20056;-81
2022/05/24 14:06:31;;;;;;;21.05;4.90;;;29.50;95.70;;;;;;5029675;28;20025;-82
2022/05/24 14:08:59;;;;;;;24.08;5.38;;;29.60;95.70;;;;;;5026690;28;20037;-82
2022/05/24 14:11:51;;;;;;;13.73;4.55;;;29.60;95.70;;;;;;5030248;28;20061;-86
2022/05/24 14:18:13;;;;;;;15.55;4.43;;;29.60;95.30;;;;;;4925733;29;20040;-81
2022/05/24 14:20:59;;;;;;;14.82;4.40;;;29.60;95.20;;;;;;5022407;28;20046;-83
2022/05/24 14:23:26;;;;;;;20.25;4.07;;;29.60;95.20;;;;;;5012378;28;20241;-85
2022/05/24 14:25:56;;;;;;;21.40;4.18;;;29.60;95.10;;;;;;5031960;28;20033;-82
2022/05/24 14:28:22;;;;;;;18.23;4.60;;;29.60;94.70;;;;;;5032026;28;20033;-91
2022/05/24 14:31:06;;;;;;;27.80;4.55;;;29.60;95.00;;;;;;5032696;28;20042;-83
2022/05/24 14:33:46;;;;;;;19.25;5.22;;;29.60;94.70;;;;;;5017405;28;20048;-82
2022/05/24 14:36:12;;;;;;;18.67;4.80;;;29.60;94.90;;;;;;5032056;28;20033;-85
2022/05/24 14:38:38;;;;;;;18.58;4.78;;;29.40;94.90;;;;;;5032817;28;20087;-82
2022/05/24 14:41:27;;;;;;;14.27;4.15;;;29.40;94.70;;;;;;5032107;28;20409;-82
2022/05/24 14:44:00;;;;;;;16.80;4.28;;;29.30;94.80;;;;;;5032003;28;20064;-85
2022/05/24 14:46:31;;;;;;;15.18;4.20;;;29.20;94.90;;;;;;5031090;28;20030;-86
2022/05/24 14:48:58;;;;;;;16.80;4.18;;;29.10;95.10;;;;;;5013882;28;20032;-85
2022/05/24 14:54:51;;;;;;;22.83;4.10;;;29.00;95.60;;;;;;5021644;28;20040;-83
2022/05/24 14:58:02;;;;;;;18.88;4.53;;;28.90;95.80;;;;;;5031485;28;20116;-84
2022/05/24 15:00:28;;;;;;;23.10;4.68;;;28.80;96.30;;;;;;5030212;28;20119;-81
2022/05/24 15:03:10;;;;;;;22.65;5.05;;;28.70;96.90;;;;;;5020324;28;20117;-81
2022/05/24 15:05:45;;;;;;;20.50;5.18;;;28.50;96.90;;;;;;5013294;28;20069;-87
2022/05/24 15:17:57;;;;;;;17.40;4.85;;;28.10;97.20;;;;;;5013510;28;20045;-89
2022/05/24 15:20:30;;;;;;;18.45;4.32;;;28.10;96.90;;;;;;4952957;28;20126;-84
2022/05/24 15:23:06;;;;;;;20.77;4.57;;;28.10;97.10;;;;;;5011155;28;20038;-80
2022/05/24 15:26:04;;;;;;;20.65;5.45;;;28.00;96.90;;;;;;5012105;28;20041;-82
2022/05/24 15:28:36;;;;;;;16.30;4.53;;;27.90;96.90;;;;;;5012400;28;20072;-83
2022/05/24 15:31:27;;;;;;;40.45;4.40;;;28.00;96.70;;;;;;5012636;28;20062;-85
2022/05/24 15:33:53;;;;;;;26.08;5.53;;;27.90;96.70;;;;;;4996732;28;20443;-84
2022/05/24 15:36:38;;;;;;;12.52;4.18;;;27.90;96.90;;;;;;5012717;28;20061;-82
2022/05/24 15:39:52;;;;;;;19.20;4.65;;;27.90;96.90;;;;;;5012373;28;20455;-82
2022/05/24 15:49:13;;;;;;;;;;;;;;;;;;;;;
2022/05/24 15:52:18;;;;;;;18.05;4.95;;;27.60;96.80;;;;;;4956065;28;20037;-82
2022/05/24 15:54:47;;;;;;;17.60;4.28;;;27.50;96.80;;;;;;5011173;28;20475;-81
2022/05/24 15:57:42;;;;;;;18.85;4.28;;;27.40;96.90;;;;;;5014693;28;20045;-84
2022/05/24 16:03:29;;;;;;;17.10;4.30;;;27.30;97.00;;;;;;4993328;28;20128;-85
2022/05/24 16:10:02;;;;;;;25.92;4.65;;;27.20;97.40;;;;;;5033088;28;20037;-82
2022/05/24 16:12:29;;;;;;;19.63;5.18;;;27.20;97.60;;;;;;5030222;28;20445;-82
2022/05/24 16:15:17;;;;;;;17.70;4.70;;;27.20;97.70;;;;;;5015384;28;20033;-83
2022/05/24 16:17:58;;;;;;;;;;;;;;;;;;;;;
2022/05/24 16:20:30;;;;;;;;;;;27.10;97.80;;;;;;5035556;28;20029;-85
2022/05/24 16:23:36;;;;;;;29.75;5.05;;;27.10;98.00;;;;;;5016092;28;19952;-87
2022/05/24 16:26:34;;;;;;;22.63;5.53;;;27.20;98.10;;;;;;5010659;28;20029;-85
2022/05/24 16:29:57;;;;;;;18.48;4.85;;;27.20;98.00;;;;;;5016536;28;20197;-87
2022/05/24 16:32:23;;;;;;;20.42;6.38;;;27.20;98.10;;;;;;4951823;29;20039;-84
2022/05/24 16:35:10;;;;;;;15.55;4.90;;;27.30;97.80;;;;;;4952774;28;20504;-83
2022/05/24 16:38:40;;;;;;;19.02;4.93;;;27.30;97.90;;;;;;5027413;28;20037;-87
2022/05/24 16:41:27;;;;;;;20.17;4.95;;;27.40;97.60;;;;;;5019719;28;20049;-87
2022/05/24 16:43:53;;;;;;;15.10;5.05;;;27.40;97.40;;;;;;5031714;28;20029;-83
2022/05/24 16:47:21;;;;;;;27.25;4.95;;;27.40;97.30;;;;;;5013742;28;20029;-81
2022/05/24 16:53:27;;;;;;;15.07;4.70;;;27.30;97.30;;;;;;4904122;29;20039;-80
2022/05/24 16:58:46;;;;;;;22.75;6.20;;;27.40;97.30;;;;;;5031080;28;20060;-84
2022/05/24 17:01:56;;;;;;;25.13;5.30;;;27.40;97.30;;;;;;5032597;28;20558;-84
2022/05/24 17:04:30;;;;;;;18.15;5.30;;;27.40;97.10;;;;;;5032422;28;20060;-84
2022/05/24 17:06:57;;;;;;;17.08;6.15;;;27.40;97.10;;;;;;5032395;28;20121;-82
2022/05/24 17:09:23;;;;;;;15.65;4.85;;;27.40;97.10;;;;;;5015694;28;20394;-82
2022/05/24 17:11:49;;;;;;;31.88;6.85;;;27.40;96.70;;;;;;5033763;28;20529;-85
2022/05/24 17:14:18;;;;;;;25.90;6.45;;;27.30;96.70;;;;;;5033809;28;20105;-80
2022/05/24 17:16:50;;;;;;;20.15;5.93;;;27.30;96.70;;;;;;5033487;28;20048;-83
2022/05/24 17:19:25;;;;;;;21.52;5.10;;;27.30;96.60;;;;;;5031760;28;20025;-85
2022/05/24 17:22:34;;;;;;;18.10;5.07;;;27.20;96.60;;;;;;5015714;28;20041;-85
2022/05/24 17:28:05;;;;;;;17.05;5.10;;;27.00;96.70;;;;;;4951625;28;20483;-87
2022/05/24 17:30:36;;;;;;;21.30;5.30;;;26.80;96.70;;;;;;5006405;28;20034;-86
2022/05/24 17:33:32;;;;;;;15.70;4.32;;;26.70;96.40;;;;;;5032098;28;20036;-84
2022/05/24 17:35:58;;;;;;;14.60;4.68;;;26.50;96.10;;;;;;5027365;28;20037;-86
2022/05/24 17:38:55;;;;;;;19.65;5.47;;;26.30;96.90;;;;;;5031235;28;20022;-88
2022/05/24 17:41:36;;;;;;;21.25;5.25;;;26.20;97.00;;;;;;5014293;28;20498;-82
2022/05/24 17:44:30;;;;;;;23.58;5.88;;;26.20;96.80;;;;;;5032719;28;20030;-84
2022/05/24 17:58:25;;;;;;;20.55;5.30;;;25.90;98.50;;;;;;4938784;29;20038;-81
2022/05/24 18:36:05;;;;;;;17.10;6.83;;;25.20;99.90;;;;;;4912686;29;20043;-79
2022/05/24 18:38:34;;;;;;;21.35;6.63;;;25.20;99.90;;;;;;4915152;29;20032;-80
2022/05/24 18:41:04;;;;;;;31.45;7.05;;;25.20;99.90;;;;;;4975359;28;20049;-80
2022/05/24 18:43:37;;;;;;;28.95;7.38;;;25.10;99.90;;;;;;5029996;28;20041;-80
2022/05/24 18:46:28;;;;;;;17.92;6.60;;;25.10;99.90;;;;;;5030368;28;20032;-82
2022/05/24 18:48:54;;;;;;;26.10;7.63;;;24.90;99.90;;;;;;5032104;28;20155;-89
2022/05/24 18:55:26;;;;;;;29.58;7.68;;;24.80;99.90;;;;;;4952667;28;20188;-80
2022/05/24 18:58:10;;;;;;;21.52;7.18;;;24.80;99.90;;;;;;4951572;29;20118;-82
2022/05/24 19:01:06;;;;;;;24.80;7.93;;;24.80;99.90;;;;;;4951555;29;20158;-84
2022/05/24 19:07:30;;;;;;;32.30;8.50;;;24.60;99.90;;;;;;4912853;29;20047;-85
2022/05/24 19:10:01;;;;;;;24.05;8.07;;;24.60;99.90;;;;;;4950539;29;20515;-82
2022/05/24 19:17:03;;;;;;;28.02;8.23;;;24.50;99.90;;;;;;4949849;29;20038;-81
2022/05/24 19:19:49;;;;;;;25.33;7.97;;;24.50;99.90;;;;;;4967145;28;20453;-81
2022/05/24 19:22:15;;;;;;;33.78;8.93;;;24.30;99.90;;;;;;4970509;28;20047;-82
2022/05/24 19:28:39;;;;;;;50.97;11.25;;;24.20;99.90;;;;;;4912144;29;20043;-81
2022/05/24 19:35:05;;;;;;;32.83;8.10;;;24.20;99.90;;;;;;4893980;29;20043;-81
2022/05/24 19:37:46;;;;;;;26.98;8.55;;;24.20;99.90;;;;;;4893416;29;20048;-82
2022/05/24 19:43:25;;;;;;;38.72;10.27;;;24.10;99.90;;;;;;4913074;29;20067;-82
2022/05/24 19:45:52;;;;;;;;;;;24.00;99.90;;;;;;4922338;29;20043;-81
2022/05/24 19:48:22;;;;;;;32.15;8.75;;;23.90;99.90;;;;;;4931360;29;19907;-81
2022/05/24 19:50:48;;;;;;;26.60;8.65;;;23.80;99.90;;;;;;4997549;28;20041;-82
2022/05/24 19:53:15;;;;;;;32.63;8.70;;;23.80;99.90;;;;;;5013301;28;20393;-83
2022/05/24 19:55:41;;;;;;;37.85;9.98;;;23.80;99.90;;;;;;5031240;28;20044;-83
2022/05/24 19:58:07;;;;;;;28.83;8.38;;;23.70;99.90;;;;;;5031347;28;20363;-84
2022/05/24 20:00:42;;;;;;;31.17;8.00;;;23.70;99.90;;;;;;5030652;28;20044;-83
2022/05/24 20:06:42;;;;;;;28.73;10.05;;;23.60;99.90;;;;;;4913281;29;20044;-82
2022/05/24 20:09:16;;;;;;;38.85;9.20;;;23.50;99.90;;;;;;4936292;29;20031;-82
2022/05/24 20:11:54;;;;;;;27.42;8.70;;;23.30;99.90;;;;;;4983318;28;20081;-81
2022/05/24 20:14:42;;;;;;;29.92;8.02;;;23.30;99.90;;;;;;5030921;28;20044;-79
2022/05/24 22:31:05;;;;;;;;;;;;;;;;;;;;;
